sensor_id;sensor_type;location;lat;lon;timestamp;P1;durP1;ratioP1;P2;durP2;ratioP2
62463;SDS011;48512;48.552;9.380;2022-07-04T00:02:16;3.17;;;2.60;;
62463;SDS011;48512;48.552;9.380;2022-07-04T00:04:42;3.30;;;2.60;;
62463;SDS011;48512;48.552;9.380;2022-07-04T00:07:07;6.93;;;2.92;;
62463;SDS011;48512;48.552;9.380;2022-07-04T00:09:33;3.97;;;3.08;;
62463;SDS011;48512;48.552;9.380;2022-07-04T00:11:58;7.60;;;3.25;;
62463;SDS011;48512;48.552;9.380;2022-07-04T00:14:23;3.70;;;3.28;;
62463;SDS011;48512;48.552;9.380;2022-07-04T00:16:49;5.30;;;3.05;;
62463;SDS011;48512;48.552;9.380;2022-07-04T00:19:14;7.30;;;3.05;;
62463;SDS011;48512;48.552;9.380;2022-07-04T00:21:40;3.88;;;2.97;;
62463;SDS011;48512;48.552;9.380;2022-07-04T00:24:05;3.03;;;2.72;;
62463;SDS011;48512;48.552;9.380;2022-07-04T00:26:31;4.03;;;2.55;;
62463;SDS011;48512;48.552;9.380;2022-07-04T00:28:56;4.32;;;2.85;;
62463;SDS011;48512;48.552;9.380;2022-07-04T00:31:21;5.10;;;2.90;;
62463;SDS011;48512;48.552;9.380;2022-07-04T00:33:47;4.22;;;2.80;;
62463;SDS011;48512;48.552;9.380;2022-07-04T00:36:12;2.90;;;2.60;;
62463;SDS011;48512;48.552;9.380;2022-07-04T00:38:38;5.50;;;3.38;;
62463;SDS011;48512;48.552;9.380;2022-07-04T00:41:03;7.43;;;2.90;;
62463;SDS011;48512;48.552;9.380;2022-07-04T00:43:29;5.05;;;3.20;;
62463;SDS011;48512;48.552;9.380;2022-07-04T00:45:55;3.47;;;2.90;;
62463;SDS011;48512;48.552;9.380;2022-07-04T00:48:20;9.68;;;3.03;;
62463;SDS011;48512;48.552;9.380;2022-07-04T00:50:46;2.97;;;2.70;;
62463;SDS011;48512;48.552;9.380;2022-07-04T00:53:12;4.50;;;3.22;;
62463;SDS011;48512;48.552;9.380;2022-07-04T00:58:07;3.95;;;2.78;;
62463;SDS011;48512;48.552;9.380;2022-07-04T01:00:33;5.18;;;3.22;;
62463;SDS011;48512;48.552;9.380;2022-07-04T01:02:58;3.83;;;3.08;;
62463;SDS011;48512;48.552;9.380;2022-07-04T01:05:24;6.32;;;3.45;;
62463;SDS011;48512;48.552;9.380;2022-07-04T01:07:49;4.20;;;3.20;;
62463;SDS011;48512;48.552;9.380;2022-07-04T01:10:15;8.20;;;3.17;;
62463;SDS011;48512;48.552;9.380;2022-07-04T01:12:41;3.42;;;2.63;;
62463;SDS011;48512;48.552;9.380;2022-07-04T01:15:06;3.60;;;3.00;;
62463;SDS011;48512;48.552;9.380;2022-07-04T01:17:44;4.80;;;3.20;;
62463;SDS011;48512;48.552;9.380;2022-07-04T01:20:11;6.22;;;3.47;;
62463;SDS011;48512;48.552;9.380;2022-07-04T01:22:37;4.45;;;3.35;;
62463;SDS011;48512;48.552;9.380;2022-07-04T01:25:02;5.80;;;3.15;;
62463;SDS011;48512;48.552;9.380;2022-07-04T01:27:28;8.30;;;3.33;;
62463;SDS011;48512;48.552;9.380;2022-07-04T01:29:53;3.38;;;3.08;;
62463;SDS011;48512;48.552;9.380;2022-07-04T01:32:19;5.15;;;2.83;;
62463;SDS011;48512;48.552;9.380;2022-07-04T01:34:45;4.53;;;2.90;;
62463;SDS011;48512;48.552;9.380;2022-07-04T01:37:10;5.40;;;2.97;;
62463;SDS011;48512;48.552;9.380;2022-07-04T01:39:35;3.42;;;2.95;;
62463;SDS011;48512;48.552;9.380;2022-07-04T01:42:01;3.60;;;3.22;;
62463;SDS011;48512;48.552;9.380;2022-07-04T01:44:26;3.72;;;3.40;;
62463;SDS011;48512;48.552;9.380;2022-07-04T01:46:52;4.28;;;3.42;;
62463;SDS011;48512;48.552;9.380;2022-07-04T01:49:17;5.13;;;3.45;;
62463;SDS011;48512;48.552;9.380;2022-07-04T01:51:46;5.75;;;3.42;;
62463;SDS011;48512;48.552;9.380;2022-07-04T01:54:13;6.63;;;3.55;;
62463;SDS011;48512;48.552;9.380;2022-07-04T01:56:39;4.20;;;3.25;;
62463;SDS011;48512;48.552;9.380;2022-07-04T01:59:05;4.53;;;3.33;;
62463;SDS011;48512;48.552;9.380;2022-07-04T02:01:31;6.88;;;3.40;;
62463;SDS011;48512;48.552;9.380;2022-07-04T02:03:57;4.82;;;3.10;;
62463;SDS011;48512;48.552;9.380;2022-07-04T02:06:23;6.95;;;5.10;;
62463;SDS011;48512;48.552;9.380;2022-07-04T02:08:49;3.70;;;3.25;;
62463;SDS011;48512;48.552;9.380;2022-07-04T02:11:33;6.65;;;3.95;;
62463;SDS011;48512;48.552;9.380;2022-07-04T02:14:19;4.47;;;3.50;;
62463;SDS011;48512;48.552;9.380;2022-07-04T02:16:44;4.18;;;3.40;;
62463;SDS011;48512;48.552;9.380;2022-07-04T02:19:10;7.93;;;4.13;;
62463;SDS011;48512;48.552;9.380;2022-07-04T02:21:35;4.15;;;3.75;;
62463;SDS011;48512;48.552;9.380;2022-07-04T02:24:01;3.92;;;3.50;;
62463;SDS011;48512;48.552;9.380;2022-07-04T02:26:26;6.78;;;3.70;;
62463;SDS011;48512;48.552;9.380;2022-07-04T02:28:52;5.75;;;3.72;;
62463;SDS011;48512;48.552;9.380;2022-07-04T02:31:17;4.90;;;4.10;;
62463;SDS011;48512;48.552;9.380;2022-07-04T02:33:43;5.30;;;3.65;;
62463;SDS011;48512;48.552;9.380;2022-07-04T02:36:09;4.93;;;4.03;;
62463;SDS011;48512;48.552;9.380;2022-07-04T02:38:34;6.28;;;3.85;;
62463;SDS011;48512;48.552;9.380;2022-07-04T02:40:59;3.90;;;3.53;;
62463;SDS011;48512;48.552;9.380;2022-07-04T02:43:25;7.45;;;4.00;;
62463;SDS011;48512;48.552;9.380;2022-07-04T02:45:50;5.20;;;4.15;;
62463;SDS011;48512;48.552;9.380;2022-07-04T02:48:16;4.40;;;4.00;;
62463;SDS011;48512;48.552;9.380;2022-07-04T02:50:41;7.47;;;4.57;;
62463;SDS011;48512;48.552;9.380;2022-07-04T02:53:06;7.45;;;4.15;;
62463;SDS011;48512;48.552;9.380;2022-07-04T02:55:32;5.55;;;3.60;;
62463;SDS011;48512;48.552;9.380;2022-07-04T02:57:57;5.30;;;3.83;;
62463;SDS011;48512;48.552;9.380;2022-07-04T03:00:22;4.70;;;4.00;;
62463;SDS011;48512;48.552;9.380;2022-07-04T03:02:48;4.90;;;3.97;;
62463;SDS011;48512;48.552;9.380;2022-07-04T03:05:13;4.20;;;3.78;;
62463;SDS011;48512;48.552;9.380;2022-07-04T03:07:39;4.85;;;4.05;;
62463;SDS011;48512;48.552;9.380;2022-07-04T03:10:04;6.28;;;5.32;;
62463;SDS011;48512;48.552;9.380;2022-07-04T03:12:30;5.30;;;4.80;;
62463;SDS011;48512;48.552;9.380;2022-07-04T03:14:55;6.32;;;4.47;;
62463;SDS011;48512;48.552;9.380;2022-07-04T03:17:24;8.45;;;4.53;;
62463;SDS011;48512;48.552;9.380;2022-07-04T03:19:53;6.53;;;4.60;;
62463;SDS011;48512;48.552;9.380;2022-07-04T03:22:18;8.93;;;4.75;;
62463;SDS011;48512;48.552;9.380;2022-07-04T03:24:44;7.95;;;5.13;;
62463;SDS011;48512;48.552;9.380;2022-07-04T03:27:09;7.63;;;5.00;;
62463;SDS011;48512;48.552;9.380;2022-07-04T03:29:34;9.55;;;4.63;;
62463;SDS011;48512;48.552;9.380;2022-07-04T03:32:00;7.80;;;4.63;;
62463;SDS011;48512;48.552;9.380;2022-07-04T03:34:25;5.03;;;4.38;;
62463;SDS011;48512;48.552;9.380;2022-07-04T03:36:51;7.32;;;5.00;;
62463;SDS011;48512;48.552;9.380;2022-07-04T03:39:16;7.50;;;4.75;;
62463;SDS011;48512;48.552;9.380;2022-07-04T03:41:41;6.90;;;4.63;;
62463;SDS011;48512;48.552;9.380;2022-07-04T03:44:07;4.90;;;4.30;;
62463;SDS011;48512;48.552;9.380;2022-07-04T03:46:32;7.45;;;4.65;;
62463;SDS011;48512;48.552;9.380;2022-07-04T03:48:58;5.78;;;4.20;;
62463;SDS011;48512;48.552;9.380;2022-07-04T03:51:24;6.00;;;4.45;;
62463;SDS011;48512;48.552;9.380;2022-07-04T03:53:50;10.43;;;5.13;;
62463;SDS011;48512;48.552;9.380;2022-07-04T03:56:15;5.43;;;4.93;;
62463;SDS011;48512;48.552;9.380;2022-07-04T03:58:41;5.28;;;4.40;;
62463;SDS011;48512;48.552;9.380;2022-07-04T04:01:13;6.18;;;4.15;;
62463;SDS011;48512;48.552;9.380;2022-07-04T04:03:42;6.43;;;4.70;;
62463;SDS011;48512;48.552;9.380;2022-07-04T04:06:26;9.00;;;5.00;;
62463;SDS011;48512;48.552;9.380;2022-07-04T04:08:52;7.55;;;5.13;;
62463;SDS011;48512;48.552;9.380;2022-07-04T04:11:17;7.88;;;5.13;;
62463;SDS011;48512;48.552;9.380;2022-07-04T04:13:42;4.53;;;4.13;;
62463;SDS011;48512;48.552;9.380;2022-07-04T04:16:08;6.80;;;4.43;;
62463;SDS011;48512;48.552;9.380;2022-07-04T04:18:33;7.82;;;5.40;;
62463;SDS011;48512;48.552;9.380;2022-07-04T04:20:59;8.23;;;5.50;;
62463;SDS011;48512;48.552;9.380;2022-07-04T04:23:24;6.75;;;4.80;;
62463;SDS011;48512;48.552;9.380;2022-07-04T04:25:50;7.32;;;4.80;;
62463;SDS011;48512;48.552;9.380;2022-07-04T04:28:15;5.15;;;4.40;;
62463;SDS011;48512;48.552;9.380;2022-07-04T04:30:40;7.28;;;4.43;;
62463;SDS011;48512;48.552;9.380;2022-07-04T04:33:06;8.70;;;4.68;;
62463;SDS011;48512;48.552;9.380;2022-07-04T04:35:31;7.35;;;4.85;;
62463;SDS011;48512;48.552;9.380;2022-07-04T04:37:56;5.90;;;4.38;;
62463;SDS011;48512;48.552;9.380;2022-07-04T04:40:23;5.68;;;4.80;;
62463;SDS011;48512;48.552;9.380;2022-07-04T04:42:48;6.80;;;4.72;;
62463;SDS011;48512;48.552;9.380;2022-07-04T04:45:14;6.00;;;4.75;;
62463;SDS011;48512;48.552;9.380;2022-07-04T04:47:39;7.25;;;4.70;;
62463;SDS011;48512;48.552;9.380;2022-07-04T04:50:06;5.45;;;4.72;;
62463;SDS011;48512;48.552;9.380;2022-07-04T04:52:35;7.25;;;4.93;;
62463;SDS011;48512;48.552;9.380;2022-07-04T04:55:00;7.75;;;5.65;;
62463;SDS011;48512;48.552;9.380;2022-07-04T04:57:26;7.05;;;5.00;;
62463;SDS011;48512;48.552;9.380;2022-07-04T04:59:51;9.63;;;5.38;;
62463;SDS011;48512;48.552;9.380;2022-07-04T05:02:17;5.50;;;4.60;;
62463;SDS011;48512;48.552;9.380;2022-07-04T05:04:42;6.97;;;4.70;;
62463;SDS011;48512;48.552;9.380;2022-07-04T05:07:08;8.82;;;4.82;;
62463;SDS011;48512;48.552;9.380;2022-07-04T05:09:33;7.97;;;4.40;;
62463;SDS011;48512;48.552;9.380;2022-07-04T05:11:58;9.57;;;4.65;;
62463;SDS011;48512;48.552;9.380;2022-07-04T05:14:24;7.43;;;4.38;;
62463;SDS011;48512;48.552;9.380;2022-07-04T05:16:49;8.70;;;4.78;;
62463;SDS011;48512;48.552;9.380;2022-07-04T05:19:14;7.05;;;4.53;;
62463;SDS011;48512;48.552;9.380;2022-07-04T05:21:40;7.85;;;3.97;;
62463;SDS011;48512;48.552;9.380;2022-07-04T05:24:05;5.57;;;3.97;;
62463;SDS011;48512;48.552;9.380;2022-07-04T05:26:31;7.45;;;4.22;;
62463;SDS011;48512;48.552;9.380;2022-07-04T05:28:56;6.07;;;4.10;;
62463;SDS011;48512;48.552;9.380;2022-07-04T05:31:22;9.07;;;4.53;;
62463;SDS011;48512;48.552;9.380;2022-07-04T05:33:49;6.50;;;4.30;;
62463;SDS011;48512;48.552;9.380;2022-07-04T05:36:16;5.65;;;4.38;;
62463;SDS011;48512;48.552;9.380;2022-07-04T05:38:41;8.38;;;4.07;;
62463;SDS011;48512;48.552;9.380;2022-07-04T05:41:06;7.93;;;4.30;;
62463;SDS011;48512;48.552;9.380;2022-07-04T05:43:32;9.02;;;4.97;;
62463;SDS011;48512;48.552;9.380;2022-07-04T05:45:57;6.43;;;4.60;;
62463;SDS011;48512;48.552;9.380;2022-07-04T05:48:23;4.97;;;4.47;;
62463;SDS011;48512;48.552;9.380;2022-07-04T05:50:48;8.25;;;4.38;;
62463;SDS011;48512;48.552;9.380;2022-07-04T05:53:13;7.70;;;4.40;;
62463;SDS011;48512;48.552;9.380;2022-07-04T05:55:39;7.20;;;4.45;;
62463;SDS011;48512;48.552;9.380;2022-07-04T05:58:04;7.82;;;4.78;;
62463;SDS011;48512;48.552;9.380;2022-07-04T06:00:30;10.80;;;4.78;;
62463;SDS011;48512;48.552;9.380;2022-07-04T06:02:55;7.07;;;4.32;;
62463;SDS011;48512;48.552;9.380;2022-07-04T06:05:20;5.78;;;4.57;;
62463;SDS011;48512;48.552;9.380;2022-07-04T06:07:46;5.00;;;4.47;;
62463;SDS011;48512;48.552;9.380;2022-07-04T06:10:13;7.57;;;4.88;;
62463;SDS011;48512;48.552;9.380;2022-07-04T06:12:39;6.45;;;4.57;;
62463;SDS011;48512;48.552;9.380;2022-07-04T06:15:04;6.60;;;4.78;;
62463;SDS011;48512;48.552;9.380;2022-07-04T06:17:31;6.68;;;4.60;;
62463;SDS011;48512;48.552;9.380;2022-07-04T06:19:57;8.32;;;4.93;;
62463;SDS011;48512;48.552;9.380;2022-07-04T06:22:22;4.45;;;4.05;;
62463;SDS011;48512;48.552;9.380;2022-07-04T06:24:47;6.53;;;4.75;;
62463;SDS011;48512;48.552;9.380;2022-07-04T06:27:13;7.60;;;4.55;;
62463;SDS011;48512;48.552;9.380;2022-07-04T06:29:38;7.45;;;4.68;;
62463;SDS011;48512;48.552;9.380;2022-07-04T06:32:05;8.55;;;4.72;;
62463;SDS011;48512;48.552;9.380;2022-07-04T06:34:31;6.45;;;4.05;;
62463;SDS011;48512;48.552;9.380;2022-07-04T06:37:15;5.78;;;4.43;;
62463;SDS011;48512;48.552;9.380;2022-07-04T06:39:40;8.52;;;4.70;;
62463;SDS011;48512;48.552;9.380;2022-07-04T06:42:06;7.72;;;4.00;;
62463;SDS011;48512;48.552;9.380;2022-07-04T06:44:31;6.45;;;4.45;;
62463;SDS011;48512;48.552;9.380;2022-07-04T06:46:57;5.45;;;4.30;;
62463;SDS011;48512;48.552;9.380;2022-07-04T06:49:22;6.00;;;4.10;;
62463;SDS011;48512;48.552;9.380;2022-07-04T06:51:48;5.88;;;4.35;;
62463;SDS011;48512;48.552;9.380;2022-07-04T06:54:13;5.15;;;4.55;;
62463;SDS011;48512;48.552;9.380;2022-07-04T06:56:39;5.95;;;4.10;;
62463;SDS011;48512;48.552;9.380;2022-07-04T06:59:04;7.45;;;4.68;;
62463;SDS011;48512;48.552;9.380;2022-07-04T07:01:30;6.18;;;3.97;;
62463;SDS011;48512;48.552;9.380;2022-07-04T07:03:55;6.90;;;4.53;;
62463;SDS011;48512;48.552;9.380;2022-07-04T07:06:21;7.70;;;4.35;;
62463;SDS011;48512;48.552;9.380;2022-07-04T07:08:48;7.75;;;4.13;;
62463;SDS011;48512;48.552;9.380;2022-07-04T07:11:14;7.57;;;4.45;;
62463;SDS011;48512;48.552;9.380;2022-07-04T07:13:45;11.70;;;4.45;;
62463;SDS011;48512;48.552;9.380;2022-07-04T07:16:12;9.05;;;4.60;;
62463;SDS011;48512;48.552;9.380;2022-07-04T07:18:38;5.40;;;4.15;;
62463;SDS011;48512;48.552;9.380;2022-07-04T07:21:03;8.40;;;4.43;;
62463;SDS011;48512;48.552;9.380;2022-07-04T07:23:29;6.90;;;4.40;;
62463;SDS011;48512;48.552;9.380;2022-07-04T07:25:54;8.38;;;4.63;;
62463;SDS011;48512;48.552;9.380;2022-07-04T07:28:20;8.35;;;4.78;;
62463;SDS011;48512;48.552;9.380;2022-07-04T07:30:45;7.13;;;4.53;;
62463;SDS011;48512;48.552;9.380;2022-07-04T07:33:11;5.93;;;4.40;;
62463;SDS011;48512;48.552;9.380;2022-07-04T07:35:36;8.18;;;4.50;;
62463;SDS011;48512;48.552;9.380;2022-07-04T07:38:02;9.02;;;4.82;;
62463;SDS011;48512;48.552;9.380;2022-07-04T07:40:27;10.88;;;5.30;;
62463;SDS011;48512;48.552;9.380;2022-07-04T07:42:53;7.80;;;4.55;;
62463;SDS011;48512;48.552;9.380;2022-07-04T07:45:19;10.38;;;4.70;;
62463;SDS011;48512;48.552;9.380;2022-07-04T07:47:45;7.05;;;4.75;;
62463;SDS011;48512;48.552;9.380;2022-07-04T07:50:11;12.02;;;5.00;;
62463;SDS011;48512;48.552;9.380;2022-07-04T07:52:36;8.25;;;4.60;;
62463;SDS011;48512;48.552;9.380;2022-07-04T07:55:02;8.68;;;4.13;;
62463;SDS011;48512;48.552;9.380;2022-07-04T07:57:28;7.95;;;4.07;;
62463;SDS011;48512;48.552;9.380;2022-07-04T07:59:54;6.70;;;4.53;;
62463;SDS011;48512;48.552;9.380;2022-07-04T08:02:19;7.75;;;4.25;;
62463;SDS011;48512;48.552;9.380;2022-07-04T08:04:45;7.15;;;4.85;;
62463;SDS011;48512;48.552;9.380;2022-07-04T08:07:10;5.50;;;4.55;;
62463;SDS011;48512;48.552;9.380;2022-07-04T08:09:39;8.52;;;4.65;;
62463;SDS011;48512;48.552;9.380;2022-07-04T08:12:05;6.60;;;4.55;;
62463;SDS011;48512;48.552;9.380;2022-07-04T08:14:32;10.13;;;5.18;;
62463;SDS011;48512;48.552;9.380;2022-07-04T08:16:58;7.63;;;4.68;;
62463;SDS011;48512;48.552;9.380;2022-07-04T08:19:24;6.30;;;4.32;;
62463;SDS011;48512;48.552;9.380;2022-07-04T08:21:50;8.57;;;5.22;;
62463;SDS011;48512;48.552;9.380;2022-07-04T08:24:17;11.48;;;5.40;;
62463;SDS011;48512;48.552;9.380;2022-07-04T08:26:42;8.68;;;4.65;;
62463;SDS011;48512;48.552;9.380;2022-07-04T08:29:08;6.63;;;4.30;;
62463;SDS011;48512;48.552;9.380;2022-07-04T08:31:33;7.97;;;4.55;;
62463;SDS011;48512;48.552;9.380;2022-07-04T08:33:59;7.15;;;4.95;;
62463;SDS011;48512;48.552;9.380;2022-07-04T08:36:24;6.47;;;4.60;;
62463;SDS011;48512;48.552;9.380;2022-07-04T08:38:50;8.30;;;5.13;;
62463;SDS011;48512;48.552;9.380;2022-07-04T08:41:15;5.55;;;4.93;;
62463;SDS011;48512;48.552;9.380;2022-07-04T08:43:42;9.00;;;5.10;;
62463;SDS011;48512;48.552;9.380;2022-07-04T08:46:12;11.02;;;4.93;;
62463;SDS011;48512;48.552;9.380;2022-07-04T08:48:40;6.83;;;4.70;;
62463;SDS011;48512;48.552;9.380;2022-07-04T08:51:16;8.20;;;4.85;;
62463;SDS011;48512;48.552;9.380;2022-07-04T08:53:52;7.32;;;5.63;;
62463;SDS011;48512;48.552;9.380;2022-07-04T08:56:21;7.10;;;4.60;;
62463;SDS011;48512;48.552;9.380;2022-07-04T08:59:06;8.40;;;4.90;;
62463;SDS011;48512;48.552;9.380;2022-07-04T09:01:32;6.82;;;4.40;;
62463;SDS011;48512;48.552;9.380;2022-07-04T09:03:58;7.07;;;4.93;;
62463;SDS011;48512;48.552;9.380;2022-07-04T09:06:25;9.82;;;4.80;;
62463;SDS011;48512;48.552;9.380;2022-07-04T09:08:52;9.23;;;4.93;;
62463;SDS011;48512;48.552;9.380;2022-07-04T09:11:18;8.82;;;4.50;;
62463;SDS011;48512;48.552;9.380;2022-07-04T09:13:44;9.20;;;4.72;;
62463;SDS011;48512;48.552;9.380;2022-07-04T09:16:09;9.52;;;5.13;;
62463;SDS011;48512;48.552;9.380;2022-07-04T09:18:35;6.47;;;5.07;;
62463;SDS011;48512;48.552;9.380;2022-07-04T09:21:05;12.88;;;4.82;;
62463;SDS011;48512;48.552;9.380;2022-07-04T09:23:32;6.07;;;4.22;;
62463;SDS011;48512;48.552;9.380;2022-07-04T09:26:10;5.15;;;4.38;;
62463;SDS011;48512;48.552;9.380;2022-07-04T09:28:44;10.25;;;4.88;;
62463;SDS011;48512;48.552;9.380;2022-07-04T09:31:15;6.70;;;4.20;;
62463;SDS011;48512;48.552;9.380;2022-07-04T09:36:12;8.10;;;4.45;;
62463;SDS011;48512;48.552;9.380;2022-07-04T09:38:38;6.05;;;4.45;;
62463;SDS011;48512;48.552;9.380;2022-07-04T09:41:04;9.48;;;4.25;;
62463;SDS011;48512;48.552;9.380;2022-07-04T09:44:04;11.15;;;5.00;;
62463;SDS011;48512;48.552;9.380;2022-07-04T09:46:31;5.43;;;4.45;;
62463;SDS011;48512;48.552;9.380;2022-07-04T09:48:57;6.07;;;4.85;;
62463;SDS011;48512;48.552;9.380;2022-07-04T09:56:54;8.20;;;5.13;;
62463;SDS011;48512;48.552;9.380;2022-07-04T09:59:21;9.93;;;4.90;;
62463;SDS011;48512;48.552;9.380;2022-07-04T10:01:47;7.25;;;5.30;;
62463;SDS011;48512;48.552;9.380;2022-07-04T10:04:13;6.40;;;4.47;;
62463;SDS011;48512;48.552;9.380;2022-07-04T10:06:42;6.43;;;4.63;;
62463;SDS011;48512;48.552;9.380;2022-07-04T10:11:37;7.13;;;3.97;;
62463;SDS011;48512;48.552;9.380;2022-07-04T10:14:03;6.03;;;4.80;;
62463;SDS011;48512;48.552;9.380;2022-07-04T10:16:33;9.00;;;5.15;;
62463;SDS011;48512;48.552;9.380;2022-07-04T10:18:59;6.00;;;4.60;;
62463;SDS011;48512;48.552;9.380;2022-07-04T10:21:25;9.45;;;4.57;;
62463;SDS011;48512;48.552;9.380;2022-07-04T10:23:51;5.95;;;4.72;;
62463;SDS011;48512;48.552;9.380;2022-07-04T10:26:20;5.22;;;4.47;;
62463;SDS011;48512;48.552;9.380;2022-07-04T10:28:47;6.18;;;4.00;;
62463;SDS011;48512;48.552;9.380;2022-07-04T10:31:15;8.63;;;4.93;;
62463;SDS011;48512;48.552;9.380;2022-07-04T10:33:41;7.88;;;4.65;;
62463;SDS011;48512;48.552;9.380;2022-07-04T10:36:24;5.25;;;4.43;;
62463;SDS011;48512;48.552;9.380;2022-07-04T10:38:56;9.18;;;4.70;;
62463;SDS011;48512;48.552;9.380;2022-07-04T10:41:24;8.07;;;4.78;;
62463;SDS011;48512;48.552;9.380;2022-07-04T10:43:51;8.30;;;4.35;;
62463;SDS011;48512;48.552;9.380;2022-07-04T10:46:22;8.57;;;4.75;;
62463;SDS011;48512;48.552;9.380;2022-07-04T10:48:49;4.75;;;4.35;;
62463;SDS011;48512;48.552;9.380;2022-07-04T11:02:35;12.85;;;4.82;;
62463;SDS011;48512;48.552;9.380;2022-07-04T11:04:52;6.70;;;4.32;;
62463;SDS011;48512;48.552;9.380;2022-07-04T11:17:50;5.97;;;4.50;;
62463;SDS011;48512;48.552;9.380;2022-07-04T11:20:17;8.90;;;4.10;;
62463;SDS011;48512;48.552;9.380;2022-07-04T11:22:43;5.80;;;4.32;;
62463;SDS011;48512;48.552;9.380;2022-07-04T11:25:09;6.35;;;4.50;;
62463;SDS011;48512;48.552;9.380;2022-07-04T11:27:36;6.28;;;4.30;;
62463;SDS011;48512;48.552;9.380;2022-07-04T11:30:02;8.40;;;4.07;;
62463;SDS011;48512;48.552;9.380;2022-07-04T11:32:31;5.57;;;3.90;;
62463;SDS011;48512;48.552;9.380;2022-07-04T11:34:58;6.97;;;3.90;;
62463;SDS011;48512;48.552;9.380;2022-07-04T11:37:24;6.45;;;4.35;;
62463;SDS011;48512;48.552;9.380;2022-07-04T11:39:50;6.47;;;4.43;;
62463;SDS011;48512;48.552;9.380;2022-07-04T11:42:16;9.65;;;4.30;;
62463;SDS011;48512;48.552;9.380;2022-07-04T11:45:00;6.30;;;4.20;;
62463;SDS011;48512;48.552;9.380;2022-07-04T11:50:20;7.57;;;3.80;;
62463;SDS011;48512;48.552;9.380;2022-07-04T11:52:46;5.18;;;3.47;;
62463;SDS011;48512;48.552;9.380;2022-07-04T11:55:14;5.80;;;3.60;;
62463;SDS011;48512;48.552;9.380;2022-07-04T11:57:45;4.63;;;3.27;;
62463;SDS011;48512;48.552;9.380;2022-07-04T12:00:16;4.85;;;3.53;;
62463;SDS011;48512;48.552;9.380;2022-07-04T12:02:47;6.00;;;3.53;;
62463;SDS011;48512;48.552;9.380;2022-07-04T12:05:14;11.55;;;4.10;;
62463;SDS011;48512;48.552;9.380;2022-07-04T12:07:41;7.93;;;3.53;;
62463;SDS011;48512;48.552;9.380;2022-07-04T12:12:50;5.50;;;3.33;;
62463;SDS011;48512;48.552;9.380;2022-07-04T12:15:19;4.53;;;3.38;;
62463;SDS011;48512;48.552;9.380;2022-07-04T12:17:48;6.57;;;3.47;;
62463;SDS011;48512;48.552;9.380;2022-07-04T12:20:19;4.78;;;3.58;;
62463;SDS011;48512;48.552;9.380;2022-07-04T12:22:55;8.25;;;3.45;;
62463;SDS011;48512;48.552;9.380;2022-07-04T12:30:26;6.65;;;3.72;;
62463;SDS011;48512;48.552;9.380;2022-07-04T12:33:04;3.45;;;3.15;;
62463;SDS011;48512;48.552;9.380;2022-07-04T12:38:03;5.55;;;3.35;;
62463;SDS011;48512;48.552;9.380;2022-07-04T12:40:30;6.82;;;3.40;;
62463;SDS011;48512;48.552;9.380;2022-07-04T12:42:56;5.47;;;3.50;;
62463;SDS011;48512;48.552;9.380;2022-07-04T12:45:22;5.43;;;3.30;;
62463;SDS011;48512;48.552;9.380;2022-07-04T12:47:48;6.10;;;3.60;;
62463;SDS011;48512;48.552;9.380;2022-07-04T12:50:14;3.53;;;3.13;;
62463;SDS011;48512;48.552;9.380;2022-07-04T12:52:39;5.22;;;3.17;;
62463;SDS011;48512;48.552;9.380;2022-07-04T12:55:07;4.13;;;3.00;;
62463;SDS011;48512;48.552;9.380;2022-07-04T12:57:36;7.18;;;3.20;;
62463;SDS011;48512;48.552;9.380;2022-07-04T13:00:02;5.63;;;3.40;;
62463;SDS011;48512;48.552;9.380;2022-07-04T13:02:29;6.30;;;3.25;;
62463;SDS011;48512;48.552;9.380;2022-07-04T13:04:54;4.32;;;3.15;;
62463;SDS011;48512;48.552;9.380;2022-07-04T13:07:20;6.25;;;2.95;;
62463;SDS011;48512;48.552;9.380;2022-07-04T13:09:45;4.25;;;3.20;;
62463;SDS011;48512;48.552;9.380;2022-07-04T13:12:12;5.25;;;3.30;;
62463;SDS011;48512;48.552;9.380;2022-07-04T13:14:51;5.93;;;3.33;;
62463;SDS011;48512;48.552;9.380;2022-07-04T13:17:18;3.92;;;3.15;;
62463;SDS011;48512;48.552;9.380;2022-07-04T13:19:44;6.53;;;3.50;;
62463;SDS011;48512;48.552;9.380;2022-07-04T13:22:09;4.60;;;3.10;;
62463;SDS011;48512;48.552;9.380;2022-07-04T13:24:35;4.25;;;2.70;;
62463;SDS011;48512;48.552;9.380;2022-07-04T13:27:00;5.47;;;3.10;;
62463;SDS011;48512;48.552;9.380;2022-07-04T13:29:26;6.57;;;2.90;;
62463;SDS011;48512;48.552;9.380;2022-07-04T13:31:51;6.90;;;3.20;;
62463;SDS011;48512;48.552;9.380;2022-07-04T13:34:17;4.80;;;3.05;;
62463;SDS011;48512;48.552;9.380;2022-07-04T13:36:42;7.15;;;3.20;;
62463;SDS011;48512;48.552;9.380;2022-07-04T13:39:09;5.20;;;2.88;;
62463;SDS011;48512;48.552;9.380;2022-07-04T13:41:35;5.65;;;2.95;;
62463;SDS011;48512;48.552;9.380;2022-07-04T13:44:02;3.70;;;2.80;;
62463;SDS011;48512;48.552;9.380;2022-07-04T13:46:28;5.82;;;2.75;;
62463;SDS011;48512;48.552;9.380;2022-07-04T13:48:54;4.43;;;3.00;;
62463;SDS011;48512;48.552;9.380;2022-07-04T13:51:19;7.72;;;2.80;;
62463;SDS011;48512;48.552;9.380;2022-07-04T13:53:44;9.60;;;3.20;;
62463;SDS011;48512;48.552;9.380;2022-07-04T13:56:10;6.68;;;3.10;;
62463;SDS011;48512;48.552;9.380;2022-07-04T13:58:37;4.22;;;2.75;;
62463;SDS011;48512;48.552;9.380;2022-07-04T14:01:03;8.93;;;2.97;;
62463;SDS011;48512;48.552;9.380;2022-07-04T14:03:28;4.75;;;2.63;;
62463;SDS011;48512;48.552;9.380;2022-07-04T14:05:53;3.25;;;2.78;;
62463;SDS011;48512;48.552;9.380;2022-07-04T14:08:19;4.47;;;2.72;;
62463;SDS011;48512;48.552;9.380;2022-07-04T14:10:44;3.88;;;2.40;;
62463;SDS011;48512;48.552;9.380;2022-07-04T14:13:10;5.20;;;3.00;;
62463;SDS011;48512;48.552;9.380;2022-07-04T14:15:35;6.95;;;3.30;;
62463;SDS011;48512;48.552;9.380;2022-07-04T14:18:01;4.65;;;3.10;;
62463;SDS011;48512;48.552;9.380;2022-07-04T14:20:28;3.90;;;3.38;;
62463;SDS011;48512;48.552;9.380;2022-07-04T14:22:53;3.95;;;2.95;;
62463;SDS011;48512;48.552;9.380;2022-07-04T14:25:28;6.65;;;3.20;;
62463;SDS011;48512;48.552;9.380;2022-07-04T14:28:11;3.70;;;3.00;;
62463;SDS011;48512;48.552;9.380;2022-07-04T14:30:36;5.93;;;3.20;;
62463;SDS011;48512;48.552;9.380;2022-07-04T14:33:02;4.88;;;2.75;;
62463;SDS011;48512;48.552;9.380;2022-07-04T14:35:28;3.88;;;3.25;;
62463;SDS011;48512;48.552;9.380;2022-07-04T14:37:53;4.72;;;2.97;;
62463;SDS011;48512;48.552;9.380;2022-07-04T14:40:21;4.93;;;3.05;;
62463;SDS011;48512;48.552;9.380;2022-07-04T14:42:47;5.25;;;2.83;;
62463;SDS011;48512;48.552;9.380;2022-07-04T14:45:13;5.05;;;3.17;;
62463;SDS011;48512;48.552;9.380;2022-07-04T14:47:38;4.75;;;3.22;;
62463;SDS011;48512;48.552;9.380;2022-07-04T14:50:06;3.43;;;3.03;;
62463;SDS011;48512;48.552;9.380;2022-07-04T14:52:33;4.90;;;3.20;;
62463;SDS011;48512;48.552;9.380;2022-07-04T14:55:00;9.10;;;2.95;;
62463;SDS011;48512;48.552;9.380;2022-07-04T14:57:25;7.93;;;3.35;;
62463;SDS011;48512;48.552;9.380;2022-07-04T14:59:51;6.50;;;3.22;;
62463;SDS011;48512;48.552;9.380;2022-07-04T15:02:16;4.43;;;2.88;;
62463;SDS011;48512;48.552;9.380;2022-07-04T15:04:41;6.43;;;3.15;;
62463;SDS011;48512;48.552;9.380;2022-07-04T15:07:07;6.07;;;2.95;;
62463;SDS011;48512;48.552;9.380;2022-07-04T15:09:32;7.40;;;3.42;;
62463;SDS011;48512;48.552;9.380;2022-07-04T15:11:57;5.97;;;3.15;;
62463;SDS011;48512;48.552;9.380;2022-07-04T15:14:23;6.15;;;2.97;;
62463;SDS011;48512;48.552;9.380;2022-07-04T15:16:50;7.97;;;3.85;;
62463;SDS011;48512;48.552;9.380;2022-07-04T15:19:15;7.22;;;3.40;;
62463;SDS011;48512;48.552;9.380;2022-07-04T15:21:43;5.45;;;3.40;;
62463;SDS011;48512;48.552;9.380;2022-07-04T15:24:27;4.55;;;3.33;;
62463;SDS011;48512;48.552;9.380;2022-07-04T15:26:52;6.57;;;3.60;;
62463;SDS011;48512;48.552;9.380;2022-07-04T15:29:19;7.60;;;3.50;;
62463;SDS011;48512;48.552;9.380;2022-07-04T15:31:46;3.63;;;3.33;;
62463;SDS011;48512;48.552;9.380;2022-07-04T15:34:13;9.55;;;3.35;;